Página principal
METAR-TAF:

METAR-TAF

Aeroportos :

Petersburg, Alasca, Estados Unidos

latitude: 56-49N, longitude: 132-58W, altura: 0 m

Observação actual do tempo

O boletim foi feito há 10 minutos, às 09:56 UTC
Vento calmo
Temperatura 2°C
Humidade 80%
Pressão 1028 hPa
Visibilidade: 16.1 km

METAR: PAPG 190956Z AUTO 00000KT 10SM 02/M01 A3037 RMK AO2 SLP289 T00171011 FZRANO

Hora: 02:06 (10:06 UTC)

Previsão

O boletim foi feito há 4 horas e 32 minutos, às 05:34 UTC
Previsão válida de 19 às 06 UTC a 20 às 06 UTC
Vento 3 kt com direcção variável
Visibilidade: 10 km
Céu limpo
A partir de 19 às 1600 UTC
Vento 4 kt de es-nordeste
Visibilidade: 10 km
Céu limpo

TAF: PAPG 190534Z 1906/2006 VRB03KT P6SM SKC FM191600 07004KT P6SM SKC AMD LTD TO CLD VIS AND WIND 1906/1915

Observações e previsões do tempo de mais de 4000 aeroportos (mensagens METAR e TAF).

As estações disponíveis são os pontos amarelos e vermelhos sobre o mapa.

Mova o rato sobre o mapa para ver o nome da estação.

Depois clique no ponto para visualizar as observações e previsões meteorológicas.

Para alterar o mapa : clique nos botões verdes com uma cruz preta para aumentar o zoom; no botão verde com uma pitada de zoom; ou nas setas verdes para mapas adjacentes.


METAR-TAF: